Time;durP1;ratioP1;P1;durP2;ratioP2;P2;SDS_P1;SDS_P2;PMS_P1;PMS_P2;Temp;Humidity;BMP_temperature;BMP_pressure;BME280_temperature;BME280_humidity;BME280_pressure;Samples;Min_cycle;Max_cycle;Signal;HPM_P1;HPM_P2
2021/12/15 00:02:19;;;;;;;12.20;6.38;;;1.00;99.90;;;;;;5061673;28;20033;-81
2021/12/15 00:04:50;;;;;;;11.68;7.00;;;1.00;99.90;;;;;;5053062;28;20055;-79
2021/12/15 00:07:21;;;;;;;11.45;6.38;;;1.00;99.90;;;;;;5056506;28;20416;-81
2021/12/15 00:09:48;;;;;;;9.73;5.97;;;1.00;99.90;;;;;;5070462;28;20017;-80
2021/12/15 00:12:15;;;;;;;9.25;5.40;;;1.00;99.90;;;;;;5069690;28;20029;-80
2021/12/15 00:14:42;;;;;;;10.85;5.70;;;1.00;99.90;;;;;;5052830;28;20032;-80
2021/12/15 00:17:09;;;;;;;9.95;6.00;;;1.00;99.90;;;;;;5060178;28;20397;-80
2021/12/15 00:19:34;;;;;;;10.27;6.20;;;1.10;99.90;;;;;;5048205;28;20021;-81
2021/12/15 00:22:01;;;;;;;12.60;6.35;;;1.10;99.90;;;;;;5058721;28;20401;-80
2021/12/15 00:24:27;;;;;;;10.77;5.85;;;1.10;99.90;;;;;;5059899;28;20048;-80
2021/12/15 00:26:54;;;;;;;10.50;5.95;;;1.10;99.90;;;;;;5041166;28;20077;-80
2021/12/15 00:29:20;;;;;;;9.68;5.68;;;1.10;99.90;;;;;;5050214;28;20059;-81
2021/12/15 00:31:47;;;;;;;8.60;5.18;;;1.10;99.90;;;;;;5050573;28;20449;-82
2021/12/15 00:34:14;;;;;;;8.45;5.22;;;1.10;99.90;;;;;;5056427;28;20492;-79
2021/12/15 00:36:43;;;;;;;8.80;5.00;;;1.10;99.90;;;;;;5050136;28;20483;-80
2021/12/15 00:39:11;;;;;;;9.10;5.25;;;1.10;99.90;;;;;;5047784;28;20523;-80
2021/12/15 00:41:37;;;;;;;10.82;6.20;;;1.10;99.90;;;;;;5036724;28;20047;-80
2021/12/15 00:44:03;;;;;;;9.93;6.55;;;1.10;99.90;;;;;;5056191;28;20025;-80
2021/12/15 00:46:29;;;;;;;11.48;6.95;;;1.10;99.90;;;;;;5042553;28;20432;-80
2021/12/15 00:48:54;;;;;;;11.45;6.18;;;1.10;99.90;;;;;;5037965;28;20029;-80
2021/12/15 00:51:20;;;;;;;9.57;5.57;;;1.10;99.90;;;;;;5044000;28;20032;-81
2021/12/15 00:53:47;;;;;;;10.32;6.22;;;1.10;99.90;;;;;;5059292;28;20051;-79
2021/12/15 00:56:12;;;;;;;11.02;6.15;;;1.10;99.90;;;;;;5046408;28;20033;-81
2021/12/15 00:58:39;;;;;;;10.98;6.60;;;1.10;99.90;;;;;;5057437;28;20033;-81
2021/12/15 01:01:05;;;;;;;11.68;6.68;;;1.10;99.90;;;;;;5051972;28;20029;-81
2021/12/15 01:03:31;;;;;;;11.20;6.97;;;1.10;99.90;;;;;;5037987;28;20037;-80
2021/12/15 01:06:06;;;;;;;9.95;6.35;;;1.10;99.90;;;;;;5046264;28;20389;-80
2021/12/15 01:08:35;;;;;;;13.20;6.65;;;1.20;99.90;;;;;;5056058;28;20047;-82
2021/12/15 01:11:31;;;;;;;11.95;6.35;;;1.20;99.90;;;;;;5047349;28;20025;-81
2021/12/15 01:19:54;;;;;;;14.95;7.22;;;1.10;99.90;;;;;;5041618;28;20080;-81
2021/12/15 01:22:33;;;;;;;11.68;6.65;;;1.10;99.90;;;;;;5051664;28;20397;-80
2021/12/15 01:25:09;;;;;;;12.13;6.32;;;1.10;99.90;;;;;;5058114;28;20033;-80
2021/12/15 01:27:35;;;;;;;10.98;6.18;;;1.10;99.90;;;;;;5040411;28;20022;-80
2021/12/15 01:30:01;;;;;;;11.45;6.47;;;1.10;99.90;;;;;;5041058;28;20068;-80
2021/12/15 01:32:27;;;;;;;14.43;7.18;;;1.00;99.90;;;;;;5041564;28;20022;-81
2021/12/15 01:34:53;;;;;;;12.95;6.75;;;1.00;99.90;;;;;;5041785;28;20075;-80
2021/12/15 01:37:19;;;;;;;10.07;6.60;;;1.00;99.90;;;;;;5057212;28;20084;-82
2021/12/15 01:39:45;;;;;;;10.35;6.22;;;1.00;99.90;;;;;;5056851;28;20048;-80
2021/12/15 01:42:12;;;;;;;10.05;6.20;;;1.00;99.90;;;;;;5038599;28;20033;-81
2021/12/15 01:47:23;;;;;;;12.10;7.05;;;1.00;99.90;;;;;;5051937;28;20066;-80
2021/12/15 01:49:51;;;;;;;11.13;6.38;;;1.10;99.90;;;;;;5047310;28;20037;-80
2021/12/15 01:52:19;;;;;;;11.82;6.93;;;1.10;99.90;;;;;;5039755;28;20021;-80
2021/12/15 01:54:52;;;;;;;11.27;6.45;;;1.10;99.90;;;;;;5037105;28;20440;-81
2021/12/15 01:57:19;;;;;;;12.55;6.90;;;1.10;99.90;;;;;;5057432;28;20465;-81
2021/12/15 01:59:47;;;;;;;13.65;6.90;;;1.10;99.90;;;;;;5047175;28;20037;-81
2021/12/15 02:02:14;;;;;;;14.30;6.47;;;1.10;99.90;;;;;;5052927;28;20025;-80
2021/12/15 02:04:40;;;;;;;10.80;6.18;;;1.10;99.90;;;;;;5046301;28;20033;-80
2021/12/15 02:07:10;;;;;;;11.30;5.70;;;1.10;99.90;;;;;;5052949;28;20051;-80
2021/12/15 02:12:09;;;;;;;12.55;6.45;;;1.10;99.90;;;;;;5046426;28;20025;-80
2021/12/15 02:14:35;;;;;;;11.63;6.15;;;1.10;99.90;;;;;;5040944;28;20017;-80
2021/12/15 02:17:01;;;;;;;11.45;7.00;;;1.10;99.90;;;;;;5055850;28;20033;-79
2021/12/15 02:19:28;;;;;;;13.32;6.68;;;1.10;99.90;;;;;;5058060;28;20044;-80
2021/12/15 02:21:54;;;;;;;13.80;7.03;;;1.10;99.90;;;;;;5057730;28;20033;-80
2021/12/15 02:24:21;;;;;;;10.98;6.78;;;1.10;99.90;;;;;;5051638;28;20026;-80
2021/12/15 02:26:50;;;;;;;11.23;6.28;;;1.20;99.90;;;;;;5058300;28;20036;-80
2021/12/15 02:29:20;;;;;;;10.90;6.65;;;1.20;99.90;;;;;;5056585;28;20026;-80
2021/12/15 02:39:32;;;;;;;12.38;7.35;;;1.10;99.90;;;;;;5060867;28;20052;-80
2021/12/15 02:41:58;;;;;;;13.70;6.97;;;1.10;99.90;;;;;;5042586;28;20492;-80
2021/12/15 02:44:25;;;;;;;16.13;6.93;;;1.10;99.90;;;;;;5042445;28;20033;-80
2021/12/15 02:46:53;;;;;;;14.68;7.57;;;1.10;99.90;;;;;;5057049;28;20052;-80
2021/12/15 02:49:22;;;;;;;14.35;7.38;;;1.10;99.90;;;;;;5058914;28;20037;-80
2021/12/15 02:51:51;;;;;;;15.38;7.70;;;1.10;99.90;;;;;;5051314;28;20029;-80
2021/12/15 02:54:19;;;;;;;16.83;6.80;;;1.10;99.90;;;;;;5043148;28;20044;-80
2021/12/15 02:56:46;;;;;;;16.27;7.55;;;1.10;99.90;;;;;;5057272;28;20032;-80
2021/12/15 02:59:14;;;;;;;15.88;7.65;;;1.10;99.90;;;;;;5054567;28;20101;-80
2021/12/15 03:02:00;;;;;;;13.13;7.28;;;1.00;99.90;;;;;;5058377;28;20475;-80
2021/12/15 03:04:42;;;;;;;12.60;6.82;;;1.10;99.90;;;;;;5058817;28;20029;-80
2021/12/15 03:07:27;;;;;;;16.65;7.35;;;1.00;99.90;;;;;;5061063;28;20029;-80
2021/12/15 03:15:35;;;;;;;10.73;6.47;;;1.10;99.90;;;;;;5051870;28;20032;-79
2021/12/15 03:18:06;;;;;;;12.27;6.50;;;1.00;99.90;;;;;;5062368;28;20025;-80
2021/12/15 03:20:36;;;;;;;11.52;6.53;;;1.10;99.90;;;;;;5056820;28;20056;-80
2021/12/15 03:23:06;;;;;;;10.23;6.10;;;1.10;99.90;;;;;;5061600;28;20108;-80
2021/12/15 03:25:32;;;;;;;11.88;6.60;;;1.10;99.90;;;;;;5045187;28;20041;-80
2021/12/15 03:33:40;;;;;;;14.10;7.00;;;1.10;99.90;;;;;;5043259;28;20060;-80
2021/12/15 03:36:13;;;;;;;18.85;8.73;;;1.10;99.90;;;;;;5054331;28;20032;-80
2021/12/15 03:38:40;;;;;;;17.67;8.35;;;1.10;99.90;;;;;;5058077;28;20029;-80
2021/12/15 03:41:09;;;;;;;18.27;8.90;;;1.10;99.90;;;;;;5055473;28;20029;-80
2021/12/15 03:43:37;;;;;;;19.10;9.10;;;1.20;99.90;;;;;;5044022;28;20040;-79
2021/12/15 03:46:11;;;;;;;21.77;10.35;;;1.20;99.90;;;;;;5055190;28;20025;-80
2021/12/15 03:48:40;;;;;;;18.73;8.85;;;1.20;99.90;;;;;;5044586;28;20523;-80
2021/12/15 03:51:06;;;;;;;17.95;8.57;;;1.10;99.90;;;;;;5059336;28;20017;-80
2021/12/15 03:53:32;;;;;;;17.55;8.15;;;1.10;99.90;;;;;;5053790;28;20051;-79
2021/12/15 03:55:59;;;;;;;15.95;7.53;;;1.20;99.90;;;;;;5056988;28;20494;-80
2021/12/15 03:58:25;;;;;;;14.63;7.63;;;1.20;99.90;;;;;;5058685;28;20030;-80
2021/12/15 04:00:56;;;;;;;17.13;7.55;;;1.20;99.90;;;;;;5050895;28;20464;-80
2021/12/15 04:03:37;;;;;;;11.77;6.30;;;1.20;99.90;;;;;;5041320;28;20036;-80
2021/12/15 04:06:06;;;;;;;13.82;6.75;;;1.20;99.90;;;;;;5049591;28;20025;-80
2021/12/15 04:08:34;;;;;;;13.98;7.07;;;1.20;99.90;;;;;;5058256;28;20029;-80
2021/12/15 04:11:02;;;;;;;12.93;7.03;;;1.20;99.90;;;;;;5047471;28;20452;-80
2021/12/15 04:13:27;;;;;;;15.55;8.05;;;1.20;99.90;;;;;;5062408;28;20025;-80
2021/12/15 04:15:57;;;;;;;18.42;8.30;;;1.20;99.90;;;;;;5060368;28;20031;-80
2021/12/15 04:18:24;;;;;;;16.15;8.02;;;1.20;99.90;;;;;;5060539;28;20021;-80
2021/12/15 04:20:51;;;;;;;15.07;8.18;;;1.20;99.90;;;;;;5052386;28;20026;-80
2021/12/15 04:23:19;;;;;;;14.80;7.55;;;1.20;99.90;;;;;;5061331;28;20032;-80
2021/12/15 04:25:47;;;;;;;13.95;7.57;;;1.20;99.90;;;;;;5057764;28;20025;-80
2021/12/15 04:28:20;;;;;;;14.15;7.50;;;1.20;99.90;;;;;;5041789;28;20037;-80
2021/12/15 04:30:50;;;;;;;14.27;7.35;;;1.20;99.90;;;;;;5056441;28;20058;-80
2021/12/15 04:33:41;;;;;;;14.20;7.55;;;1.20;99.90;;;;;;5062795;23;20042;-73
2021/12/15 04:36:09;;;;;;;15.07;7.20;;;1.20;99.90;;;;;;5032854;28;20140;-73
2021/12/15 04:38:37;;;;;;;15.02;7.68;;;1.20;99.90;;;;;;5034427;28;20057;-73
2021/12/15 04:41:07;;;;;;;12.82;7.40;;;1.20;99.90;;;;;;5033799;28;20033;-73
2021/12/15 04:43:34;;;;;;;14.07;6.88;;;1.20;99.90;;;;;;5033382;28;20061;-72
2021/12/15 04:46:04;;;;;;;14.90;7.57;;;1.20;99.90;;;;;;5028052;28;20394;-73
2021/12/15 04:48:30;;;;;;;15.40;7.30;;;1.20;99.90;;;;;;5012423;28;20065;-73
2021/12/15 04:50:56;;;;;;;13.23;7.38;;;1.20;99.90;;;;;;5013989;28;20084;-73
2021/12/15 04:53:22;;;;;;;13.35;7.18;;;1.20;99.90;;;;;;5013926;28;20022;-73
2021/12/15 04:55:48;;;;;;;13.35;7.22;;;1.20;99.90;;;;;;5016782;28;20466;-73
2021/12/15 04:58:14;;;;;;;14.93;7.00;;;1.20;99.90;;;;;;5033653;28;20436;-73
2021/12/15 05:00:47;;;;;;;16.40;7.63;;;1.10;99.90;;;;;;5031120;28;20052;-74
2021/12/15 05:03:13;;;;;;;12.23;6.53;;;1.20;99.90;;;;;;5033456;28;20469;-74
2021/12/15 05:05:39;;;;;;;16.17;7.75;;;1.20;99.90;;;;;;5031628;28;20034;-74
2021/12/15 05:08:06;;;;;;;14.57;7.65;;;1.20;99.90;;;;;;5013443;28;20076;-74
2021/12/15 05:10:33;;;;;;;15.35;7.55;;;1.20;99.90;;;;;;5012423;28;20033;-74
2021/12/15 05:12:59;;;;;;;18.08;7.90;;;1.20;99.90;;;;;;5029286;28;20025;-74
2021/12/15 05:15:26;;;;;;;15.18;7.75;;;1.20;99.90;;;;;;5033309;28;20013;-74
2021/12/15 05:17:52;;;;;;;13.48;6.57;;;1.20;99.90;;;;;;5031570;28;20075;-74
2021/12/15 05:20:19;;;;;;;14.38;7.35;;;1.20;99.90;;;;;;5017041;28;20030;-74
2021/12/15 05:22:45;;;;;;;14.20;6.90;;;1.10;99.90;;;;;;5013703;28;20460;-74
2021/12/15 05:25:11;;;;;;;13.98;7.25;;;1.20;99.90;;;;;;5013612;28;20133;-73
2021/12/15 05:27:38;;;;;;;18.50;8.75;;;1.20;99.90;;;;;;5030140;28;20044;-74
2021/12/15 05:30:08;;;;;;;21.15;9.45;;;1.10;99.90;;;;;;5033303;28;20018;-74
2021/12/15 05:32:34;;;;;;;18.77;8.80;;;1.10;99.90;;;;;;5033061;28;20030;-73
2021/12/15 05:35:00;;;;;;;19.08;8.82;;;1.10;99.90;;;;;;5032013;28;20040;-74
2021/12/15 05:37:28;;;;;;;21.65;9.63;;;1.10;99.90;;;;;;5033147;28;20034;-74
2021/12/15 05:39:55;;;;;;;20.13;9.48;;;1.10;99.90;;;;;;5032985;28;20030;-74
2021/12/15 05:42:22;;;;;;;20.45;9.55;;;1.10;99.90;;;;;;5033425;28;20033;-73
2021/12/15 05:44:50;;;;;;;23.85;11.07;;;1.10;99.90;;;;;;5032170;28;20033;-73
2021/12/15 05:47:17;;;;;;;23.40;11.77;;;1.10;99.90;;;;;;5019007;28;20092;-73
2021/12/15 05:49:43;;;;;;;26.88;13.07;;;1.10;99.90;;;;;;5013347;28;20029;-73
2021/12/15 05:52:09;;;;;;;31.98;16.00;;;1.10;99.90;;;;;;5013646;28;20450;-73
2021/12/15 05:54:35;;;;;;;31.23;16.73;;;1.10;99.90;;;;;;5013609;28;20116;-73
2021/12/15 05:57:01;;;;;;;32.42;15.35;;;1.10;99.90;;;;;;5025268;28;20432;-74
2021/12/15 05:59:27;;;;;;;31.08;16.60;;;1.10;99.90;;;;;;5031831;28;20057;-75
2021/12/15 06:01:53;;;;;;;29.35;15.95;;;1.10;99.90;;;;;;5035647;28;20030;-75
2021/12/15 06:04:20;;;;;;;27.00;15.35;;;1.10;99.90;;;;;;5036862;28;20485;-75
2021/12/15 06:06:46;;;;;;;28.85;14.73;;;1.20;99.90;;;;;;5036488;28;20055;-74
2021/12/15 06:09:12;;;;;;;27.85;14.80;;;1.20;99.90;;;;;;5036683;28;20521;-75
2021/12/15 06:11:39;;;;;;;21.70;12.85;;;1.20;99.90;;;;;;5036681;28;20108;-75
2021/12/15 06:14:06;;;;;;;23.67;12.85;;;1.20;99.90;;;;;;5036694;28;20082;-75
2021/12/15 06:16:34;;;;;;;22.55;11.85;;;1.20;99.90;;;;;;5029279;28;20018;-75
2021/12/15 06:19:00;;;;;;;25.13;12.63;;;1.20;99.90;;;;;;5016829;28;20152;-75
2021/12/15 06:21:26;;;;;;;23.88;12.25;;;1.20;99.90;;;;;;5016817;28;20152;-75
2021/12/15 06:23:51;;;;;;;23.00;11.50;;;1.20;99.90;;;;;;5016893;28;20050;-74
2021/12/15 06:26:18;;;;;;;21.13;10.80;;;1.20;99.90;;;;;;5021074;28;20496;-75
2021/12/15 06:28:46;;;;;;;22.02;11.32;;;1.20;99.90;;;;;;5035266;28;20436;-75
2021/12/15 06:31:15;;;;;;;20.98;10.73;;;1.20;99.90;;;;;;5036394;28;20026;-76
2021/12/15 06:33:43;;;;;;;19.33;10.52;;;1.20;99.90;;;;;;5036335;28;20664;-76
2021/12/15 06:36:13;;;;;;;21.13;10.15;;;1.20;99.90;;;;;;5033559;28;20131;-74
2021/12/15 06:38:43;;;;;;;22.80;10.50;;;1.20;99.90;;;;;;5016446;28;20084;-74
2021/12/15 06:41:10;;;;;;;22.75;10.32;;;1.20;99.90;;;;;;5015195;28;20026;-75
2021/12/15 06:43:37;;;;;;;20.20;10.20;;;1.20;99.90;;;;;;5016279;28;20100;-75
2021/12/15 06:46:36;;;;;;;20.98;9.73;;;1.10;99.90;;;;;;5017004;28;20026;-75
2021/12/15 06:59:58;;;;;;;27.08;12.73;;;1.20;99.90;;;;;;5016567;28;20037;-75
2021/12/15 07:02:24;;;;;;;28.88;12.02;;;1.20;99.90;;;;;;5028283;28;20030;-75
2021/12/15 07:04:50;;;;;;;27.77;12.80;;;1.20;99.90;;;;;;5036099;28;20026;-75
2021/12/15 07:07:16;;;;;;;24.05;11.98;;;1.20;99.90;;;;;;5035735;28;20028;-75
2021/12/15 07:09:42;;;;;;;24.98;13.60;;;1.20;99.90;;;;;;5035275;28;20480;-75
2021/12/15 07:12:09;;;;;;;22.52;11.90;;;1.20;99.90;;;;;;5035421;28;20030;-75
2021/12/15 07:14:35;;;;;;;26.67;13.23;;;1.20;99.90;;;;;;5035377;28;20021;-75
2021/12/15 07:17:07;;;;;;;22.48;12.25;;;1.20;99.90;;;;;;5033449;28;20044;-76
2021/12/15 07:19:51;;;;;;;18.65;10.75;;;1.20;99.90;;;;;;5033768;28;20428;-76
2021/12/15 07:22:30;;;;;;;28.20;13.55;;;1.20;99.90;;;;;;5034628;28;20471;-75
2021/12/15 07:24:56;;;;;;;27.27;12.45;;;1.30;99.90;;;;;;5034058;28;20040;-76
2021/12/15 07:27:22;;;;;;;26.58;14.10;;;1.30;99.90;;;;;;5028227;28;20030;-75
2021/12/15 07:29:49;;;;;;;26.92;13.85;;;1.20;99.90;;;;;;5015043;28;20033;-76
2021/12/15 07:32:14;;;;;;;27.38;13.18;;;1.30;99.90;;;;;;5015034;28;20034;-76
2021/12/15 07:34:40;;;;;;;30.33;14.10;;;1.30;99.90;;;;;;5014294;28;20034;-75
2021/12/15 07:37:06;;;;;;;36.65;15.95;;;1.30;99.90;;;;;;5014415;28;20018;-76
2021/12/15 07:39:32;;;;;;;30.25;14.40;;;1.30;99.90;;;;;;5033803;28;20029;-75
2021/12/15 07:42:10;;;;;;;25.13;13.23;;;1.20;99.90;;;;;;5034948;28;20029;-76
2021/12/15 07:44:36;;;;;;;28.17;13.75;;;1.20;99.90;;;;;;5035582;28;20028;-76
2021/12/15 07:47:04;;;;;;;29.55;13.20;;;1.20;99.90;;;;;;5034769;28;20030;-76
2021/12/15 07:49:32;;;;;;;27.63;13.43;;;1.20;99.90;;;;;;5035280;28;20036;-75
2021/12/15 07:52:03;;;;;;;32.08;15.27;;;1.30;99.90;;;;;;5034922;28;20025;-75
2021/12/15 07:54:30;;;;;;;;;;;1.30;99.90;;;;;;5035234;28;20028;-74
2021/12/15 07:56:56;;;;;;;22.33;12.07;;;1.30;99.90;;;;;;5033765;28;19905;-74
2021/12/15 07:59:22;;;;;;;27.80;12.88;;;1.30;99.90;;;;;;5015141;28;20033;-75
2021/12/15 08:01:48;;;;;;;23.23;12.30;;;1.30;99.90;;;;;;5015393;28;20088;-75
2021/12/15 08:04:13;;;;;;;26.55;13.18;;;1.30;99.90;;;;;;5015326;28;20156;-75
2021/12/15 08:06:40;;;;;;;27.10;13.70;;;1.30;99.90;;;;;;5014773;28;20532;-75
2021/12/15 08:09:06;;;;;;;30.17;14.50;;;1.30;99.90;;;;;;5033155;28;20109;-74
2021/12/15 08:11:32;;;;;;;28.20;15.75;;;1.30;99.90;;;;;;5034510;28;20044;-74
2021/12/15 08:13:58;;;;;;;26.23;14.43;;;1.30;99.90;;;;;;5034642;28;20034;-75
2021/12/15 08:16:25;;;;;;;23.92;13.15;;;1.30;99.90;;;;;;5034435;28;20055;-74
2021/12/15 08:18:51;;;;;;;28.58;14.65;;;1.30;99.90;;;;;;5034551;28;20053;-75
2021/12/15 08:21:17;;;;;;;26.83;12.93;;;1.30;99.90;;;;;;5033289;28;20053;-75
2021/12/15 08:23:43;;;;;;;25.52;11.80;;;1.30;99.90;;;;;;5033810;28;20033;-75
2021/12/15 08:26:09;;;;;;;15.40;7.40;;;1.40;99.90;;;;;;5034474;28;20086;-75
2021/12/15 08:28:36;;;;;;;11.65;5.90;;;1.30;99.90;;;;;;5034019;28;20060;-75
2021/12/15 08:31:03;;;;;;;14.63;6.60;;;1.40;99.90;;;;;;5033065;28;20493;-75
2021/12/15 08:33:29;;;;;;;12.50;6.03;;;1.40;99.90;;;;;;5032638;28;20044;-75
2021/12/15 08:35:58;;;;;;;12.00;5.82;;;1.40;99.90;;;;;;5034015;28;20021;-75
2021/12/15 08:38:25;;;;;;;9.80;4.90;;;1.40;99.90;;;;;;5033991;28;20025;-75
2021/12/15 08:40:52;;;;;;;11.88;5.18;;;1.40;99.90;;;;;;5033957;28;20026;-75
2021/12/15 08:43:19;;;;;;;11.13;5.22;;;1.40;99.90;;;;;;5033835;28;20099;-74
2021/12/15 08:45:59;;;;;;;10.50;5.32;;;1.40;99.90;;;;;;5033857;28;20056;-74
2021/12/15 08:48:25;;;;;;;11.55;4.80;;;1.40;99.90;;;;;;5029210;28;20366;-75
2021/12/15 08:50:51;;;;;;;11.23;5.07;;;1.40;99.90;;;;;;5031430;28;20029;-75
2021/12/15 08:53:17;;;;;;;12.77;5.32;;;1.40;99.90;;;;;;5033302;28;20078;-75
2021/12/15 08:55:46;;;;;;;10.27;5.57;;;1.50;99.90;;;;;;5032297;28;20025;-74
2021/12/15 08:58:14;;;;;;;11.75;5.47;;;1.40;99.90;;;;;;5033466;28;20034;-74
2021/12/15 09:00:46;;;;;;;11.55;5.38;;;1.40;99.90;;;;;;5033031;28;20030;-74
2021/12/15 09:03:13;;;;;;;11.38;5.90;;;1.40;99.90;;;;;;5030121;28;20029;-74
2021/12/15 09:05:41;;;;;;;14.07;6.20;;;1.50;99.90;;;;;;5033107;28;20080;-74
2021/12/15 09:08:08;;;;;;;12.43;6.00;;;1.50;99.90;;;;;;5025690;28;20034;-74
2021/12/15 09:10:35;;;;;;;11.30;5.82;;;1.50;99.90;;;;;;5012644;28;20504;-74
2021/12/15 09:13:03;;;;;;;9.43;5.40;;;1.50;99.90;;;;;;5029600;28;20109;-75
2021/12/15 09:15:29;;;;;;;11.68;6.45;;;1.50;99.90;;;;;;5033185;28;20025;-75
2021/12/15 09:17:55;;;;;;;12.43;5.85;;;1.60;99.90;;;;;;5026269;28;20482;-74
2021/12/15 09:20:25;;;;;;;13.15;5.57;;;1.60;99.90;;;;;;5011249;28;20432;-75
2021/12/15 09:22:51;;;;;;;12.35;6.15;;;1.60;99.90;;;;;;5012119;28;20022;-74
2021/12/15 09:25:17;;;;;;;12.57;6.07;;;1.70;99.90;;;;;;5012093;28;20026;-75
2021/12/15 09:27:45;;;;;;;11.48;6.30;;;1.70;99.90;;;;;;5014966;28;20090;-75
2021/12/15 09:30:17;;;;;;;11.38;5.45;;;1.70;99.90;;;;;;5030363;28;20485;-75
2021/12/15 09:32:43;;;;;;;10.35;5.32;;;1.80;99.90;;;;;;5031179;28;20046;-75
2021/12/15 09:35:11;;;;;;;13.88;6.65;;;1.80;99.90;;;;;;5030031;28;20025;-75
2021/12/15 09:37:37;;;;;;;11.32;5.80;;;1.80;99.90;;;;;;5036635;28;20029;-75
2021/12/15 09:40:05;;;;;;;14.57;6.43;;;1.90;99.90;;;;;;5036729;28;20025;-75
2021/12/15 09:42:36;;;;;;;12.45;5.85;;;2.00;99.90;;;;;;5036733;28;20105;-75
2021/12/15 09:45:21;;;;;;;11.85;5.80;;;2.10;99.90;;;;;;5037338;28;20044;-75
2021/12/15 09:56:20;;;;;;;13.77;6.53;;;2.10;99.90;;;;;;5036399;28;20033;-75
2021/12/15 10:18:13;;;;;;;13.13;6.00;;;2.20;99.90;;;;;;5032769;28;20100;-75
2021/12/15 10:20:39;;;;;;;11.07;5.97;;;2.20;99.90;;;;;;5036021;28;20029;-74
2021/12/15 10:23:11;;;;;;;10.38;5.55;;;2.20;99.90;;;;;;5035787;28;20092;-74
2021/12/15 10:25:45;;;;;;;9.75;5.63;;;2.10;99.90;;;;;;5036147;28;20078;-74
2021/12/15 10:28:18;;;;;;;13.32;6.90;;;2.20;99.90;;;;;;5034760;28;20465;-74
2021/12/15 10:30:48;;;;;;;9.48;5.43;;;2.20;99.90;;;;;;5034604;28;20073;-73
2021/12/15 10:33:24;;;;;;;9.20;4.95;;;2.30;99.90;;;;;;5033732;28;20485;-74
2021/12/15 10:36:01;;;;;;;9.10;5.47;;;2.30;99.90;;;;;;5033085;28;20061;-74
2021/12/15 10:39:07;;;;;;;10.85;5.88;;;2.30;99.90;;;;;;5022998;28;20026;-73
2021/12/15 10:41:40;;;;;;;10.07;5.05;;;2.40;99.90;;;;;;4975262;28;20045;-74
2021/12/15 10:44:09;;;;;;;8.98;4.97;;;2.40;99.90;;;;;;5010804;28;20038;-74
2021/12/15 10:46:41;;;;;;;9.52;4.85;;;2.50;99.90;;;;;;5015741;28;20081;-74
2021/12/15 10:49:11;;;;;;;10.88;6.25;;;2.60;99.90;;;;;;5015902;28;20030;-74
2021/12/15 10:51:50;;;;;;;10.88;5.82;;;2.60;99.90;;;;;;5026752;28;20466;-73
2021/12/15 10:54:34;;;;;;;11.35;5.95;;;2.60;99.90;;;;;;5035560;28;20515;-74
2021/12/15 10:57:12;;;;;;;10.45;5.95;;;2.70;99.90;;;;;;5036176;28;20021;-74
2021/12/15 10:59:42;;;;;;;10.60;6.30;;;2.60;99.90;;;;;;5033792;28;20025;-74
2021/12/15 11:02:21;;;;;;;22.30;10.20;;;2.50;99.90;;;;;;5035008;28;20037;-74
2021/12/15 11:04:50;;;;;;;13.20;7.03;;;2.40;99.90;;;;;;5031227;28;20510;-74
2021/12/15 11:07:27;;;;;;;12.15;6.57;;;2.40;99.90;;;;;;5035348;28;20117;-74
2021/12/15 11:10:13;;;;;;;10.63;5.97;;;2.30;99.90;;;;;;5031301;28;20398;-74
2021/12/15 11:12:48;;;;;;;9.23;4.80;;;2.30;99.90;;;;;;5031014;28;20087;-74
2021/12/15 11:15:28;;;;;;;8.10;4.25;;;2.30;99.90;;;;;;5017850;28;20025;-74
2021/12/15 11:17:59;;;;;;;8.23;4.85;;;2.20;99.90;;;;;;5034401;28;20025;-74
2021/12/15 11:20:32;;;;;;;8.20;4.60;;;2.20;99.90;;;;;;5034393;28;20057;-74
2021/12/15 11:23:07;;;;;;;9.48;4.82;;;2.20;99.90;;;;;;5033338;28;20489;-74
2021/12/15 11:25:58;;;;;;;10.63;5.75;;;2.30;99.90;;;;;;5033459;28;20033;-74
2021/12/15 11:28:29;;;;;;;8.93;4.80;;;2.30;99.90;;;;;;5033512;28;20075;-74
2021/12/15 11:31:04;;;;;;;10.82;5.32;;;2.50;99.90;;;;;;5016998;28;20030;-74
2021/12/15 11:33:33;;;;;;;11.45;6.00;;;2.50;99.90;;;;;;5027604;28;20064;-74
2021/12/15 11:36:10;;;;;;;9.45;5.10;;;2.70;99.90;;;;;;5033606;28;20056;-74
2021/12/15 11:38:43;;;;;;;10.25;5.30;;;2.70;99.90;;;;;;5035391;28;20169;-74
2021/12/15 11:41:19;;;;;;;8.60;5.03;;;2.80;99.90;;;;;;5032840;28;20112;-74
2021/12/15 11:43:57;;;;;;;10.77;6.13;;;2.90;99.90;;;;;;5033906;28;20079;-74
2021/12/15 11:46:43;;;;;;;16.13;6.75;;;2.90;99.90;;;;;;5033664;28;20033;-74
2021/12/15 11:49:15;;;;;;;11.40;6.30;;;2.90;99.90;;;;;;5043312;28;20036;-73
2021/12/15 11:51:48;;;;;;;13.63;5.38;;;2.80;99.90;;;;;;5054586;28;20028;-74
2021/12/15 11:54:21;;;;;;;10.70;5.32;;;2.80;99.90;;;;;;5034346;28;20388;-74
2021/12/15 11:57:09;;;;;;;13.60;5.55;;;2.80;99.90;;;;;;5056949;23;20417;-70
2021/12/15 11:59:49;;;;;;;12.75;5.68;;;2.80;99.90;;;;;;5049765;28;20029;-70
2021/12/15 12:02:27;;;;;;;14.50;7.10;;;2.90;99.90;;;;;;5045401;28;20021;-69
2021/12/15 12:05:14;;;;;;;19.38;8.57;;;2.90;99.90;;;;;;5036151;28;20396;-72
2021/12/15 12:07:53;;;;;;;20.02;9.10;;;2.90;99.90;;;;;;5031568;28;20059;-72
2021/12/15 12:10:32;;;;;;;18.20;8.85;;;2.80;99.90;;;;;;5018047;28;20034;-72
2021/12/15 12:13:11;;;;;;;14.73;8.45;;;2.80;99.90;;;;;;5013789;28;20048;-72
2021/12/15 12:15:42;;;;;;;15.80;8.85;;;2.80;99.90;;;;;;5025935;28;20026;-72
2021/12/15 12:18:13;;;;;;;12.73;8.18;;;2.80;99.90;;;;;;5032754;28;20028;-72
2021/12/15 12:20:47;;;;;;;13.00;7.00;;;2.70;99.90;;;;;;5035091;28;20025;-72
2021/12/15 12:23:22;;;;;;;13.65;7.63;;;2.60;99.90;;;;;;5033132;28;20135;-71
2021/12/15 12:25:52;;;;;;;20.92;9.30;;;2.50;99.90;;;;;;5032857;28;20028;-71
2021/12/15 12:28:24;;;;;;;17.63;8.32;;;2.50;99.90;;;;;;5032130;28;20076;-72
2021/12/15 12:30:59;;;;;;;15.30;8.50;;;2.40;99.90;;;;;;5032868;28;20022;-72
2021/12/15 12:33:27;;;;;;;16.08;8.18;;;2.40;99.90;;;;;;5032482;28;20017;-72
2021/12/15 12:36:02;;;;;;;17.50;9.02;;;2.50;99.90;;;;;;5034249;28;20052;-71
2021/12/15 12:38:29;;;;;;;18.75;9.10;;;2.50;99.90;;;;;;5032701;28;20037;-72
2021/12/15 12:41:06;;;;;;;17.20;8.65;;;2.50;99.90;;;;;;5033061;28;20497;-71
2021/12/15 12:43:38;;;;;;;14.77;7.53;;;2.50;99.90;;;;;;5031947;28;20405;-72
2021/12/15 12:46:37;;;;;;;16.45;7.88;;;2.60;99.90;;;;;;5032657;28;20025;-71
2021/12/15 12:59:23;;;;;;;13.43;7.55;;;2.70;99.90;;;;;;5034096;28;20041;-71
2021/12/15 13:01:23;;;;;;;14.38;7.85;;;2.70;99.90;;;;;;5033722;28;20022;-72
2021/12/15 13:03:58;;;;;;;13.95;7.50;;;2.70;99.90;;;;;;5033445;28;20366;-72
2021/12/15 13:06:41;;;;;;;21.30;12.27;;;2.60;99.90;;;;;;5034235;28;20099;-72
2021/12/15 13:09:31;;;;;;;13.57;7.05;;;2.60;99.90;;;;;;5029116;28;20042;-72
2021/12/15 13:12:16;;;;;;;;;;;2.50;99.90;;;;;;5014458;28;20038;-72
2021/12/15 13:14:42;;;;;;;6.95;4.05;;;2.40;99.90;;;;;;5013922;28;20019;-72
2021/12/15 13:17:20;;;;;;;7.18;4.25;;;2.40;99.90;;;;;;5014641;28;20018;-71
2021/12/15 13:19:46;;;;;;;8.30;4.57;;;2.40;99.90;;;;;;5014995;28;20357;-72
2021/12/15 13:30:49;;;;;;;12.27;7.50;;;2.40;99.90;;;;;;5034387;28;20524;-72
2021/12/15 13:33:29;;;;;;;14.18;8.50;;;2.50;99.90;;;;;;4992910;28;20107;-72
2021/12/15 13:36:16;;;;;;;14.98;8.55;;;2.50;99.90;;;;;;5033336;28;20354;-72
2021/12/15 13:38:56;;;;;;;12.10;7.55;;;2.40;99.90;;;;;;5032671;28;20026;-72
2021/12/15 13:41:49;;;;;;;14.55;8.02;;;2.40;99.90;;;;;;5034532;28;20057;-72
2021/12/15 13:44:33;;;;;;;12.48;7.15;;;2.40;99.90;;;;;;5032711;28;20026;-72
2021/12/15 13:47:02;;;;;;;14.90;8.02;;;2.40;99.90;;;;;;5033401;28;20104;-72
2021/12/15 13:49:42;;;;;;;14.27;7.82;;;2.40;99.90;;;;;;5031987;28;20125;-72
2021/12/15 13:52:10;;;;;;;13.43;7.05;;;2.40;99.90;;;;;;5033382;28;20119;-72
2021/12/15 13:54:36;;;;;;;11.05;6.05;;;2.30;99.90;;;;;;5033113;28;20104;-72
2021/12/15 13:57:14;;;;;;;11.35;6.25;;;2.30;99.90;;;;;;5032584;28;20076;-72
2021/12/15 13:59:46;;;;;;;10.20;5.97;;;2.40;99.90;;;;;;5032116;28;20033;-72
2021/12/15 14:02:19;;;;;;;11.50;6.60;;;2.40;99.90;;;;;;5028346;28;20021;-72
2021/12/15 14:04:53;;;;;;;10.82;5.65;;;2.30;99.90;;;;;;5032500;28;20493;-72
2021/12/15 14:07:28;;;;;;;9.80;5.57;;;2.30;99.90;;;;;;5013031;28;20101;-72
2021/12/15 14:10:12;;;;;;;13.73;7.20;;;2.20;99.90;;;;;;5012667;28;20022;-72
2021/12/15 14:12:47;;;;;;;15.57;7.70;;;2.20;99.90;;;;;;5025019;28;20414;-72
2021/12/15 14:15:25;;;;;;;14.95;7.82;;;2.20;99.90;;;;;;5032489;28;20108;-72
2021/12/15 14:17:58;;;;;;;10.52;6.18;;;2.20;99.90;;;;;;5032798;28;20064;-72
2021/12/15 14:20:26;;;;;;;9.05;4.75;;;2.10;99.90;;;;;;5030585;28;20029;-72
2021/12/15 14:23:03;;;;;;;8.10;4.75;;;2.10;99.90;;;;;;5035160;28;20044;-72
2021/12/15 14:25:33;;;;;;;7.35;4.10;;;2.10;99.90;;;;;;5036344;28;20504;-72
2021/12/15 14:28:08;;;;;;;7.90;4.47;;;2.10;99.90;;;;;;5033380;28;20185;-72
2021/12/15 14:30:35;;;;;;;6.85;3.88;;;2.10;99.90;;;;;;5028173;28;20060;-72